sensor_id;sensor_type;location;lat;lon;timestamp;temperature;humidity
44271;DHT22;29963;44.594;11.368;2022-10-15T00:00:43;17.20;99.90
44271;DHT22;29963;44.594;11.368;2022-10-15T00:03:09;17.10;99.90
44271;DHT22;29963;44.594;11.368;2022-10-15T00:05:38;17.00;99.90
44271;DHT22;29963;44.594;11.368;2022-10-15T00:08:08;17.00;99.90
44271;DHT22;29963;44.594;11.368;2022-10-15T00:10:35;17.00;99.90
44271;DHT22;29963;44.594;11.368;2022-10-15T00:13:02;17.10;99.90
44271;DHT22;29963;44.594;11.368;2022-10-15T00:15:28;17.20;99.90
44271;DHT22;29963;44.594;11.368;2022-10-15T00:17:54;17.30;99.90
44271;DHT22;29963;44.594;11.368;2022-10-15T00:20:20;17.30;99.90
44271;DHT22;29963;44.594;11.368;2022-10-15T00:22:46;17.30;99.90
44271;DHT22;29963;44.594;11.368;2022-10-15T00:25:12;17.30;99.90
44271;DHT22;29963;44.594;11.368;2022-10-15T00:27:38;17.40;99.90
44271;DHT22;29963;44.594;11.368;2022-10-15T00:30:05;17.50;99.90
44271;DHT22;29963;44.594;11.368;2022-10-15T00:32:31;17.50;99.90
44271;DHT22;29963;44.594;11.368;2022-10-15T00:34:57;17.60;99.90
44271;DHT22;29963;44.594;11.368;2022-10-15T00:37:23;17.50;99.90
44271;DHT22;29963;44.594;11.368;2022-10-15T00:39:49;17.60;99.90
44271;DHT22;29963;44.594;11.368;2022-10-15T00:42:15;17.60;99.90
44271;DHT22;29963;44.594;11.368;2022-10-15T00:44:53;17.60;99.90
44271;DHT22;29963;44.594;11.368;2022-10-15T00:47:39;17.60;99.90
44271;DHT22;29963;44.594;11.368;2022-10-15T00:50:10;17.60;99.90
44271;DHT22;29963;44.594;11.368;2022-10-15T00:55:18;17.70;99.90
44271;DHT22;29963;44.594;11.368;2022-10-15T00:57:48;17.60;99.90
44271;DHT22;29963;44.594;11.368;2022-10-15T01:00:15;17.50;99.90
44271;DHT22;29963;44.594;11.368;2022-10-15T01:02:42;17.30;99.90
44271;DHT22;29963;44.594;11.368;2022-10-15T01:05:08;17.20;99.90
44271;DHT22;29963;44.594;11.368;2022-10-15T01:07:34;17.20;99.90
44271;DHT22;29963;44.594;11.368;2022-10-15T01:10:00;17.00;99.90
44271;DHT22;29963;44.594;11.368;2022-10-15T01:12:42;17.00;99.90
44271;DHT22;29963;44.594;11.368;2022-10-15T01:18:11;16.90;99.90
44271;DHT22;29963;44.594;11.368;2022-10-15T01:31:43;16.90;99.90
44271;DHT22;29963;44.594;11.368;2022-10-15T01:40:19;16.70;99.90
44271;DHT22;29963;44.594;11.368;2022-10-15T01:42:59;16.50;99.90
44271;DHT22;29963;44.594;11.368;2022-10-15T01:45:33;16.30;99.90
44271;DHT22;29963;44.594;11.368;2022-10-15T01:48:09;16.20;99.90
44271;DHT22;29963;44.594;11.368;2022-10-15T01:50:40;16.10;99.90
44271;DHT22;29963;44.594;11.368;2022-10-15T01:53:07;16.10;99.90
44271;DHT22;29963;44.594;11.368;2022-10-15T01:55:35;16.10;99.90
44271;DHT22;29963;44.594;11.368;2022-10-15T01:58:04;16.10;99.90
44271;DHT22;29963;44.594;11.368;2022-10-15T02:00:30;16.10;99.90
44271;DHT22;29963;44.594;11.368;2022-10-15T02:02:59;16.00;99.90
44271;DHT22;29963;44.594;11.368;2022-10-15T02:05:29;15.80;99.90
44271;DHT22;29963;44.594;11.368;2022-10-15T02:16:53;15.90;99.90
44271;DHT22;29963;44.594;11.368;2022-10-15T02:22:14;15.70;99.90
44271;DHT22;29963;44.594;11.368;2022-10-15T02:25:04;15.60;99.90
44271;DHT22;29963;44.594;11.368;2022-10-15T02:27:32;15.60;99.90
44271;DHT22;29963;44.594;11.368;2022-10-15T02:30:01;15.70;99.90
44271;DHT22;29963;44.594;11.368;2022-10-15T02:32:28;15.60;99.90
44271;DHT22;29963;44.594;11.368;2022-10-15T02:34:55;15.70;99.90
44271;DHT22;29963;44.594;11.368;2022-10-15T02:37:24;15.70;99.90
44271;DHT22;29963;44.594;11.368;2022-10-15T02:39:51;15.80;99.90
44271;DHT22;29963;44.594;11.368;2022-10-15T02:42:17;15.90;99.90
44271;DHT22;29963;44.594;11.368;2022-10-15T02:44:43;15.90;99.90
44271;DHT22;29963;44.594;11.368;2022-10-15T02:47:09;15.90;99.90
44271;DHT22;29963;44.594;11.368;2022-10-15T02:49:36;15.80;99.90
44271;DHT22;29963;44.594;11.368;2022-10-15T02:52:02;15.70;99.90
44271;DHT22;29963;44.594;11.368;2022-10-15T02:54:27;15.60;99.90
44271;DHT22;29963;44.594;11.368;2022-10-15T02:56:53;15.60;99.90
44271;DHT22;29963;44.594;11.368;2022-10-15T02:59:18;15.60;99.90
44271;DHT22;29963;44.594;11.368;2022-10-15T03:01:44;15.70;99.90
44271;DHT22;29963;44.594;11.368;2022-10-15T03:04:10;15.80;99.90
44271;DHT22;29963;44.594;11.368;2022-10-15T03:06:36;15.80;99.90
44271;DHT22;29963;44.594;11.368;2022-10-15T03:09:02;15.80;99.90
44271;DHT22;29963;44.594;11.368;2022-10-15T03:11:28;15.80;99.90
44271;DHT22;29963;44.594;11.368;2022-10-15T03:13:54;15.70;99.90
44271;DHT22;29963;44.594;11.368;2022-10-15T03:16:20;15.70;99.90
44271;DHT22;29963;44.594;11.368;2022-10-15T03:18:45;15.70;99.90
44271;DHT22;29963;44.594;11.368;2022-10-15T03:21:11;15.80;99.90
44271;DHT22;29963;44.594;11.368;2022-10-15T03:23:37;15.90;99.90
44271;DHT22;29963;44.594;11.368;2022-10-15T03:26:03;16.00;99.90
44271;DHT22;29963;44.594;11.368;2022-10-15T03:28:29;16.10;99.90
44271;DHT22;29963;44.594;11.368;2022-10-15T03:30:54;16.10;99.90
44271;DHT22;29963;44.594;11.368;2022-10-15T03:33:20;16.10;99.90
44271;DHT22;29963;44.594;11.368;2022-10-15T03:35:46;16.10;99.90
44271;DHT22;29963;44.594;11.368;2022-10-15T03:38:11;16.10;99.90
44271;DHT22;29963;44.594;11.368;2022-10-15T03:40:37;16.00;99.90
44271;DHT22;29963;44.594;11.368;2022-10-15T03:43:03;15.90;99.90
44271;DHT22;29963;44.594;11.368;2022-10-15T03:45:28;15.90;99.90
44271;DHT22;29963;44.594;11.368;2022-10-15T03:47:54;15.80;99.90
44271;DHT22;29963;44.594;11.368;2022-10-15T03:50:19;15.60;99.90
44271;DHT22;29963;44.594;11.368;2022-10-15T03:52:45;15.30;99.90
44271;DHT22;29963;44.594;11.368;2022-10-15T03:55:11;15.20;99.90
44271;DHT22;29963;44.594;11.368;2022-10-15T03:57:39;15.10;99.90
44271;DHT22;29963;44.594;11.368;2022-10-15T04:00:08;15.10;99.90
44271;DHT22;29963;44.594;11.368;2022-10-15T04:02:33;15.20;99.90
44271;DHT22;29963;44.594;11.368;2022-10-15T04:04:59;15.30;99.90
44271;DHT22;29963;44.594;11.368;2022-10-15T04:07:25;15.30;99.90
44271;DHT22;29963;44.594;11.368;2022-10-15T04:09:51;15.30;99.90
44271;DHT22;29963;44.594;11.368;2022-10-15T04:12:17;15.30;99.90
44271;DHT22;29963;44.594;11.368;2022-10-15T04:14:43;15.30;99.90
44271;DHT22;29963;44.594;11.368;2022-10-15T04:17:09;15.20;99.90
44271;DHT22;29963;44.594;11.368;2022-10-15T04:19:34;15.10;99.90
44271;DHT22;29963;44.594;11.368;2022-10-15T04:22:01;15.10;99.90
44271;DHT22;29963;44.594;11.368;2022-10-15T04:24:26;15.10;99.90
44271;DHT22;29963;44.594;11.368;2022-10-15T04:26:52;15.10;99.90
44271;DHT22;29963;44.594;11.368;2022-10-15T04:29:18;15.10;99.90
44271;DHT22;29963;44.594;11.368;2022-10-15T04:31:44;15.10;99.90
44271;DHT22;29963;44.594;11.368;2022-10-15T04:34:10;15.10;99.90
44271;DHT22;29963;44.594;11.368;2022-10-15T04:36:36;15.10;99.90
44271;DHT22;29963;44.594;11.368;2022-10-15T04:39:02;15.10;99.90
44271;DHT22;29963;44.594;11.368;2022-10-15T04:41:28;15.10;99.90
44271;DHT22;29963;44.594;11.368;2022-10-15T04:43:55;15.10;99.90
44271;DHT22;29963;44.594;11.368;2022-10-15T04:46:21;15.10;99.90
44271;DHT22;29963;44.594;11.368;2022-10-15T04:48:47;15.10;99.90
44271;DHT22;29963;44.594;11.368;2022-10-15T04:51:18;15.10;99.90
44271;DHT22;29963;44.594;11.368;2022-10-15T04:53:44;15.10;99.90
44271;DHT22;29963;44.594;11.368;2022-10-15T04:56:13;15.00;99.90
44271;DHT22;29963;44.594;11.368;2022-10-15T04:58:41;15.00;99.90
44271;DHT22;29963;44.594;11.368;2022-10-15T05:01:09;15.10;99.90
44271;DHT22;29963;44.594;11.368;2022-10-15T05:03:39;15.00;99.90
44271;DHT22;29963;44.594;11.368;2022-10-15T05:06:11;15.00;99.90
44271;DHT22;29963;44.594;11.368;2022-10-15T05:08:37;15.00;99.90
44271;DHT22;29963;44.594;11.368;2022-10-15T05:11:09;15.00;99.90
44271;DHT22;29963;44.594;11.368;2022-10-15T05:13:35;14.90;99.90
44271;DHT22;29963;44.594;11.368;2022-10-15T05:16:14;14.80;99.90
44271;DHT22;29963;44.594;11.368;2022-10-15T05:18:41;14.80;99.90
44271;DHT22;29963;44.594;11.368;2022-10-15T05:21:07;14.80;99.90
44271;DHT22;29963;44.594;11.368;2022-10-15T05:23:34;14.80;99.90
44271;DHT22;29963;44.594;11.368;2022-10-15T05:26:03;14.70;99.90
44271;DHT22;29963;44.594;11.368;2022-10-15T05:28:29;14.70;99.90
44271;DHT22;29963;44.594;11.368;2022-10-15T05:30:56;14.70;99.90
44271;DHT22;29963;44.594;11.368;2022-10-15T05:33:21;14.60;99.90
44271;DHT22;29963;44.594;11.368;2022-10-15T05:35:47;14.60;99.90
44271;DHT22;29963;44.594;11.368;2022-10-15T05:38:13;14.60;99.90
44271;DHT22;29963;44.594;11.368;2022-10-15T05:40:39;14.60;99.90
44271;DHT22;29963;44.594;11.368;2022-10-15T05:43:07;14.60;99.90
44271;DHT22;29963;44.594;11.368;2022-10-15T05:45:33;14.60;99.90
44271;DHT22;29963;44.594;11.368;2022-10-15T05:47:58;14.70;99.90
44271;DHT22;29963;44.594;11.368;2022-10-15T05:50:24;14.80;99.90
44271;DHT22;29963;44.594;11.368;2022-10-15T05:52:50;14.80;99.90
44271;DHT22;29963;44.594;11.368;2022-10-15T05:55:18;14.80;99.90
44271;DHT22;29963;44.594;11.368;2022-10-15T05:57:44;14.80;99.90
44271;DHT22;29963;44.594;11.368;2022-10-15T06:00:10;14.80;99.90
44271;DHT22;29963;44.594;11.368;2022-10-15T06:02:35;14.80;99.90
44271;DHT22;29963;44.594;11.368;2022-10-15T06:05:01;14.90;99.90
44271;DHT22;29963;44.594;11.368;2022-10-15T06:07:27;14.80;99.90
44271;DHT22;29963;44.594;11.368;2022-10-15T06:09:52;14.80;99.90
44271;DHT22;29963;44.594;11.368;2022-10-15T06:12:18;14.70;99.90
44271;DHT22;29963;44.594;11.368;2022-10-15T06:14:44;14.60;99.90
44271;DHT22;29963;44.594;11.368;2022-10-15T06:17:09;14.60;99.90
44271;DHT22;29963;44.594;11.368;2022-10-15T06:19:35;14.70;99.90
44271;DHT22;29963;44.594;11.368;2022-10-15T06:22:03;14.70;99.90
44271;DHT22;29963;44.594;11.368;2022-10-15T06:24:29;14.70;99.90
44271;DHT22;29963;44.594;11.368;2022-10-15T06:26:56;14.60;99.90
44271;DHT22;29963;44.594;11.368;2022-10-15T06:29:22;14.60;99.90
44271;DHT22;29963;44.594;11.368;2022-10-15T06:31:48;14.60;99.90
44271;DHT22;29963;44.594;11.368;2022-10-15T06:34:13;14.70;99.90
44271;DHT22;29963;44.594;11.368;2022-10-15T06:36:39;14.80;99.90
44271;DHT22;29963;44.594;11.368;2022-10-15T06:39:05;14.90;99.90
44271;DHT22;29963;44.594;11.368;2022-10-15T06:41:31;15.00;99.90
44271;DHT22;29963;44.594;11.368;2022-10-15T06:43:56;15.00;99.90
44271;DHT22;29963;44.594;11.368;2022-10-15T06:46:22;15.00;99.90
44271;DHT22;29963;44.594;11.368;2022-10-15T06:48:48;15.10;99.90
44271;DHT22;29963;44.594;11.368;2022-10-15T06:51:14;15.20;99.90
44271;DHT22;29963;44.594;11.368;2022-10-15T06:53:40;15.20;99.90
44271;DHT22;29963;44.594;11.368;2022-10-15T06:56:06;15.20;99.90
44271;DHT22;29963;44.594;11.368;2022-10-15T06:58:32;15.30;99.90
44271;DHT22;29963;44.594;11.368;2022-10-15T07:01:05;15.30;99.90
44271;DHT22;29963;44.594;11.368;2022-10-15T07:03:30;15.40;99.90
44271;DHT22;29963;44.594;11.368;2022-10-15T07:06:01;15.50;99.90
44271;DHT22;29963;44.594;11.368;2022-10-15T07:08:27;15.60;99.90
44271;DHT22;29963;44.594;11.368;2022-10-15T07:10:53;15.60;99.90
44271;DHT22;29963;44.594;11.368;2022-10-15T07:13:19;15.60;99.90
44271;DHT22;29963;44.594;11.368;2022-10-15T07:15:44;15.80;99.90
44271;DHT22;29963;44.594;11.368;2022-10-15T07:18:11;15.80;99.90
44271;DHT22;29963;44.594;11.368;2022-10-15T07:20:37;16.00;99.90
44271;DHT22;29963;44.594;11.368;2022-10-15T07:23:03;16.10;99.90
44271;DHT22;29963;44.594;11.368;2022-10-15T07:25:28;16.20;99.90
44271;DHT22;29963;44.594;11.368;2022-10-15T07:27:55;16.30;99.90
44271;DHT22;29963;44.594;11.368;2022-10-15T07:30:22;16.40;99.90
44271;DHT22;29963;44.594;11.368;2022-10-15T07:32:48;16.50;99.90
44271;DHT22;29963;44.594;11.368;2022-10-15T07:35:14;16.60;99.90
44271;DHT22;29963;44.594;11.368;2022-10-15T07:37:40;16.80;99.90
44271;DHT22;29963;44.594;11.368;2022-10-15T07:40:06;16.80;99.90
44271;DHT22;29963;44.594;11.368;2022-10-15T07:42:32;16.90;99.90
44271;DHT22;29963;44.594;11.368;2022-10-15T07:44:57;16.90;99.90
44271;DHT22;29963;44.594;11.368;2022-10-15T07:47:23;17.00;99.90
44271;DHT22;29963;44.594;11.368;2022-10-15T07:49:49;17.00;99.90
44271;DHT22;29963;44.594;11.368;2022-10-15T07:52:15;17.00;99.90
44271;DHT22;29963;44.594;11.368;2022-10-15T07:54:40;17.00;99.90
44271;DHT22;29963;44.594;11.368;2022-10-15T07:57:06;17.00;99.90
44271;DHT22;29963;44.594;11.368;2022-10-15T07:59:36;17.10;99.90
44271;DHT22;29963;44.594;11.368;2022-10-15T08:02:02;17.20;99.90
44271;DHT22;29963;44.594;11.368;2022-10-15T08:04:27;17.20;99.90
44271;DHT22;29963;44.594;11.368;2022-10-15T08:06:53;17.30;99.90
44271;DHT22;29963;44.594;11.368;2022-10-15T08:09:19;17.40;99.90
44271;DHT22;29963;44.594;11.368;2022-10-15T08:11:45;17.40;99.90
44271;DHT22;29963;44.594;11.368;2022-10-15T08:14:10;17.50;99.90
44271;DHT22;29963;44.594;11.368;2022-10-15T08:16:36;17.50;99.90
44271;DHT22;29963;44.594;11.368;2022-10-15T08:19:02;17.50;99.90
44271;DHT22;29963;44.594;11.368;2022-10-15T08:21:28;17.60;99.90
44271;DHT22;29963;44.594;11.368;2022-10-15T08:23:53;17.80;99.90
44271;DHT22;29963;44.594;11.368;2022-10-15T08:26:19;17.80;99.90
44271;DHT22;29963;44.594;11.368;2022-10-15T08:28:45;17.90;99.90
44271;DHT22;29963;44.594;11.368;2022-10-15T08:31:10;18.00;99.90
44271;DHT22;29963;44.594;11.368;2022-10-15T08:33:36;18.00;99.90
44271;DHT22;29963;44.594;11.368;2022-10-15T08:36:06;18.10;99.90
44271;DHT22;29963;44.594;11.368;2022-10-15T08:38:32;18.10;99.90
44271;DHT22;29963;44.594;11.368;2022-10-15T08:41:00;18.20;99.90
44271;DHT22;29963;44.594;11.368;2022-10-15T08:43:35;18.30;99.90
44271;DHT22;29963;44.594;11.368;2022-10-15T08:46:05;18.30;99.90
44271;DHT22;29963;44.594;11.368;2022-10-15T08:48:44;18.40;99.90
44271;DHT22;29963;44.594;11.368;2022-10-15T08:51:24;18.50;99.90
44271;DHT22;29963;44.594;11.368;2022-10-15T08:53:54;18.60;99.90
44271;DHT22;29963;44.594;11.368;2022-10-15T08:56:33;18.70;99.90
44271;DHT22;29963;44.594;11.368;2022-10-15T08:59:16;18.80;99.90
44271;DHT22;29963;44.594;11.368;2022-10-15T09:01:57;18.90;99.90
44271;DHT22;29963;44.594;11.368;2022-10-15T09:04:46;18.80;99.90
44271;DHT22;29963;44.594;11.368;2022-10-15T09:07:42;18.80;99.90
44271;DHT22;29963;44.594;11.368;2022-10-15T09:10:15;18.90;99.90
44271;DHT22;29963;44.594;11.368;2022-10-15T09:12:50;19.00;99.90
44271;DHT22;29963;44.594;11.368;2022-10-15T09:15:18;19.10;99.90
44271;DHT22;29963;44.594;11.368;2022-10-15T09:17:47;19.10;99.90
44271;DHT22;29963;44.594;11.368;2022-10-15T09:20:18;19.20;99.90
44271;DHT22;29963;44.594;11.368;2022-10-15T09:22:48;19.20;99.90
44271;DHT22;29963;44.594;11.368;2022-10-15T09:25:18;19.30;99.90
44271;DHT22;29963;44.594;11.368;2022-10-15T09:27:46;19.30;99.90
44271;DHT22;29963;44.594;11.368;2022-10-15T09:35:48;19.40;99.90
44271;DHT22;29963;44.594;11.368;2022-10-15T09:43:50;19.80;99.90
44271;DHT22;29963;44.594;11.368;2022-10-15T09:46:16;19.80;99.90
44271;DHT22;29963;44.594;11.368;2022-10-15T09:54:03;19.80;99.90
44271;DHT22;29963;44.594;11.368;2022-10-15T09:56:44;19.90;99.90
44271;DHT22;29963;44.594;11.368;2022-10-15T09:59:16;19.90;99.90
44271;DHT22;29963;44.594;11.368;2022-10-15T10:01:56;20.10;99.90
44271;DHT22;29963;44.594;11.368;2022-10-15T10:04:28;20.10;99.90
44271;DHT22;29963;44.594;11.368;2022-10-15T10:06:56;20.10;99.90
44271;DHT22;29963;44.594;11.368;2022-10-15T10:09:28;20.20;99.90
44271;DHT22;29963;44.594;11.368;2022-10-15T10:12:01;20.30;99.90
44271;DHT22;29963;44.594;11.368;2022-10-15T10:14:32;20.30;99.90
44271;DHT22;29963;44.594;11.368;2022-10-15T10:17:23;20.30;99.90
44271;DHT22;29963;44.594;11.368;2022-10-15T10:20:15;20.40;99.90
44271;DHT22;29963;44.594;11.368;2022-10-15T10:22:48;20.40;99.90
44271;DHT22;29963;44.594;11.368;2022-10-15T10:25:41;20.50;99.90
44271;DHT22;29963;44.594;11.368;2022-10-15T10:31:07;20.60;99.90
44271;DHT22;29963;44.594;11.368;2022-10-15T10:33:46;20.70;99.90
44271;DHT22;29963;44.594;11.368;2022-10-15T10:36:28;20.80;99.90
44271;DHT22;29963;44.594;11.368;2022-10-15T10:41:57;20.90;99.90
44271;DHT22;29963;44.594;11.368;2022-10-15T10:44:39;21.00;99.90
44271;DHT22;29963;44.594;11.368;2022-10-15T10:47:20;21.10;99.90
44271;DHT22;29963;44.594;11.368;2022-10-15T10:49:53;21.10;99.90
44271;DHT22;29963;44.594;11.368;2022-10-15T10:52:36;21.10;99.90
44271;DHT22;29963;44.594;11.368;2022-10-15T10:55:15;21.10;99.90
44271;DHT22;29963;44.594;11.368;2022-10-15T10:57:47;21.10;99.90
44271;DHT22;29963;44.594;11.368;2022-10-15T11:00:19;21.10;99.90
44271;DHT22;29963;44.594;11.368;2022-10-15T11:02:45;21.20;99.90
44271;DHT22;29963;44.594;11.368;2022-10-15T11:05:12;21.20;99.90
44271;DHT22;29963;44.594;11.368;2022-10-15T11:10:56;21.30;99.90
44271;DHT22;29963;44.594;11.368;2022-10-15T11:16:19;21.30;99.90
44271;DHT22;29963;44.594;11.368;2022-10-15T11:25:37;21.60;99.90
44271;DHT22;29963;44.594;11.368;2022-10-15T11:36:25;21.90;99.90
44271;DHT22;29963;44.594;11.368;2022-10-15T11:47:47;22.10;99.90
44271;DHT22;29963;44.594;11.368;2022-10-15T11:50:24;22.20;99.90
44271;DHT22;29963;44.594;11.368;2022-10-15T11:55:41;22.30;99.90
44271;DHT22;29963;44.594;11.368;2022-10-15T12:04:01;22.50;99.90
44271;DHT22;29963;44.594;11.368;2022-10-15T12:06:31;22.60;99.90
44271;DHT22;29963;44.594;11.368;2022-10-15T12:09:00;22.60;99.90
44271;DHT22;29963;44.594;11.368;2022-10-15T12:11:49;22.70;99.90
44271;DHT22;29963;44.594;11.368;2022-10-15T12:16:55;22.90;99.90
44271;DHT22;29963;44.594;11.368;2022-10-15T12:19:27;22.90;99.90
44271;DHT22;29963;44.594;11.368;2022-10-15T12:27:21;23.00;99.90
44271;DHT22;29963;44.594;11.368;2022-10-15T12:29:47;23.00;99.90
44271;DHT22;29963;44.594;11.368;2022-10-15T12:32:23;23.00;99.90
44271;DHT22;29963;44.594;11.368;2022-10-15T12:34:56;23.10;99.90
44271;DHT22;29963;44.594;11.368;2022-10-15T12:37:23;23.20;99.90
44271;DHT22;29963;44.594;11.368;2022-10-15T12:40:00;23.20;99.90
44271;DHT22;29963;44.594;11.368;2022-10-15T12:44:51;23.30;99.90
44271;DHT22;29963;44.594;11.368;2022-10-15T12:50:03;23.50;99.90
44271;DHT22;29963;44.594;11.368;2022-10-15T12:55:35;23.70;99.90
44271;DHT22;29963;44.594;11.368;2022-10-15T13:02:54;23.90;99.80
44271;DHT22;29963;44.594;11.368;2022-10-15T13:05:29;23.90;99.90
44271;DHT22;29963;44.594;11.368;2022-10-15T13:07:56;24.00;99.90
44271;DHT22;29963;44.594;11.368;2022-10-15T13:10:27;24.20;99.90
44271;DHT22;29963;44.594;11.368;2022-10-15T13:12:54;24.30;99.90
44271;DHT22;29963;44.594;11.368;2022-10-15T13:15:22;24.50;99.60
44271;DHT22;29963;44.594;11.368;2022-10-15T13:17:49;24.60;99.60
44271;DHT22;29963;44.594;11.368;2022-10-15T13:20:32;24.70;99.30
44271;DHT22;29963;44.594;11.368;2022-10-15T13:23:20;24.70;99.50
44271;DHT22;29963;44.594;11.368;2022-10-15T13:25:46;24.80;99.10
44271;DHT22;29963;44.594;11.368;2022-10-15T13:28:28;24.80;98.40
44271;DHT22;29963;44.594;11.368;2022-10-15T13:30:54;24.70;98.10
44271;DHT22;29963;44.594;11.368;2022-10-15T13:33:19;24.60;98.40
44271;DHT22;29963;44.594;11.368;2022-10-15T13:35:45;24.50;98.50
44271;DHT22;29963;44.594;11.368;2022-10-15T13:38:19;24.40;98.40
44271;DHT22;29963;44.594;11.368;2022-10-15T13:40:46;24.30;98.80
44271;DHT22;29963;44.594;11.368;2022-10-15T13:43:15;24.30;98.80
44271;DHT22;29963;44.594;11.368;2022-10-15T13:45:45;24.30;98.70
44271;DHT22;29963;44.594;11.368;2022-10-15T13:48:10;24.20;98.80
44271;DHT22;29963;44.594;11.368;2022-10-15T13:50:37;24.20;99.00
44271;DHT22;29963;44.594;11.368;2022-10-15T13:55:30;24.20;99.20
44271;DHT22;29963;44.594;11.368;2022-10-15T13:58:01;24.20;99.00
44271;DHT22;29963;44.594;11.368;2022-10-15T14:00:31;24.20;99.40
44271;DHT22;29963;44.594;11.368;2022-10-15T14:05:32;24.20;99.10
44271;DHT22;29963;44.594;11.368;2022-10-15T14:07:57;24.20;99.30
44271;DHT22;29963;44.594;11.368;2022-10-15T14:10:26;24.30;99.30
44271;DHT22;29963;44.594;11.368;2022-10-15T14:12:51;24.50;99.00
44271;DHT22;29963;44.594;11.368;2022-10-15T14:18:01;24.60;97.50
44271;DHT22;29963;44.594;11.368;2022-10-15T14:20:27;24.50;97.80
44271;DHT22;29963;44.594;11.368;2022-10-15T14:22:53;24.40;97.90
44271;DHT22;29963;44.594;11.368;2022-10-15T14:25:22;24.30;98.30
44271;DHT22;29963;44.594;11.368;2022-10-15T14:27:48;24.20;98.40
44271;DHT22;29963;44.594;11.368;2022-10-15T14:30:17;24.20;98.80
44271;DHT22;29963;44.594;11.368;2022-10-15T14:32:46;24.20;98.70
44271;DHT22;29963;44.594;11.368;2022-10-15T14:35:23;24.30;98.60
44271;DHT22;29963;44.594;11.368;2022-10-15T14:37:59;24.40;98.60
44271;DHT22;29963;44.594;11.368;2022-10-15T14:40:25;24.60;98.90
44271;DHT22;29963;44.594;11.368;2022-10-15T14:45:29;25.90;97.10
44271;DHT22;29963;44.594;11.368;2022-10-15T14:47:56;26.30;96.90
44271;DHT22;29963;44.594;11.368;2022-10-15T14:50:33;26.70;96.10
44271;DHT22;29963;44.594;11.368;2022-10-15T14:52:59;26.90;95.50
44271;DHT22;29963;44.594;11.368;2022-10-15T14:55:30;27.30;95.20
44271;DHT22;29963;44.594;11.368;2022-10-15T14:57:57;27.60;94.30
44271;DHT22;29963;44.594;11.368;2022-10-15T15:00:31;27.80;93.40
44271;DHT22;29963;44.594;11.368;2022-10-15T15:02:58;27.90;93.40
44271;DHT22;29963;44.594;11.368;2022-10-15T15:05:27;27.80;93.70
44271;DHT22;29963;44.594;11.368;2022-10-15T15:07:53;27.70;94.00
44271;DHT22;29963;44.594;11.368;2022-10-15T15:10:23;27.80;93.70
44271;DHT22;29963;44.594;11.368;2022-10-15T15:12:49;27.90;93.80
44271;DHT22;29963;44.594;11.368;2022-10-15T15:15:17;28.00;93.50
44271;DHT22;29963;44.594;11.368;2022-10-15T15:17:43;28.20;93.00
44271;DHT22;29963;44.594;11.368;2022-10-15T15:20:09;28.40;92.50
44271;DHT22;29963;44.594;11.368;2022-10-15T15:22:35;28.40;92.20
44271;DHT22;29963;44.594;11.368;2022-10-15T15:25:03;28.30;92.20
44271;DHT22;29963;44.594;11.368;2022-10-15T15:27:31;28.30;92.10
44271;DHT22;29963;44.594;11.368;2022-10-15T15:30:02;28.00;92.00
44271;DHT22;29963;44.594;11.368;2022-10-15T15:32:28;27.50;92.70
44271;DHT22;29963;44.594;11.368;2022-10-15T15:34:53;27.10;93.00
44271;DHT22;29963;44.594;11.368;2022-10-15T15:37:20;26.80;93.50
44271;DHT22;29963;44.594;11.368;2022-10-15T15:39:47;26.50;94.10
44271;DHT22;29963;44.594;11.368;2022-10-15T15:42:13;26.20;94.70
44271;DHT22;29963;44.594;11.368;2022-10-15T15:44:39;25.90;95.10
44271;DHT22;29963;44.594;11.368;2022-10-15T15:47:08;25.60;95.60
44271;DHT22;29963;44.594;11.368;2022-10-15T15:49:33;25.40;95.80
44271;DHT22;29963;44.594;11.368;2022-10-15T15:51:59;25.10;95.90
44271;DHT22;29963;44.594;11.368;2022-10-15T15:54:25;25.00;95.90
44271;DHT22;29963;44.594;11.368;2022-10-15T15:56:50;24.80;96.30
44271;DHT22;29963;44.594;11.368;2022-10-15T15:59:16;24.60;96.10
44271;DHT22;29963;44.594;11.368;2022-10-15T16:01:44;24.50;96.60
44271;DHT22;29963;44.594;11.368;2022-10-15T16:04:10;24.40;97.10
44271;DHT22;29963;44.594;11.368;2022-10-15T16:06:37;24.30;97.30
44271;DHT22;29963;44.594;11.368;2022-10-15T16:09:02;24.20;97.60
44271;DHT22;29963;44.594;11.368;2022-10-15T16:11:30;24.00;97.70
44271;DHT22;29963;44.594;11.368;2022-10-15T16:13:56;24.00;97.90
44271;DHT22;29963;44.594;11.368;2022-10-15T16:16:22;23.90;97.70
44271;DHT22;29963;44.594;11.368;2022-10-15T16:18:49;23.80;97.80
44271;DHT22;29963;44.594;11.368;2022-10-15T16:21:19;23.70;98.10
44271;DHT22;29963;44.594;11.368;2022-10-15T16:23:45;23.70;98.30
44271;DHT22;29963;44.594;11.368;2022-10-15T16:26:10;23.60;98.30
44271;DHT22;29963;44.594;11.368;2022-10-15T16:28:36;23.60;98.50
44271;DHT22;29963;44.594;11.368;2022-10-15T16:33:45;23.40;99.00
44271;DHT22;29963;44.594;11.368;2022-10-15T16:36:11;23.30;99.20
44271;DHT22;29963;44.594;11.368;2022-10-15T16:38:40;23.30;99.20
44271;DHT22;29963;44.594;11.368;2022-10-15T16:41:09;23.30;99.30
44271;DHT22;29963;44.594;11.368;2022-10-15T16:43:34;23.20;99.40
44271;DHT22;29963;44.594;11.368;2022-10-15T16:46:00;23.20;99.40
44271;DHT22;29963;44.594;11.368;2022-10-15T16:48:29;23.10;99.50
44271;DHT22;29963;44.594;11.368;2022-10-15T16:51:02;23.10;99.40
44271;DHT22;29963;44.594;11.368;2022-10-15T16:53:29;23.00;99.50
44271;DHT22;29963;44.594;11.368;2022-10-15T16:56:28;23.00;99.70
44271;DHT22;29963;44.594;11.368;2022-10-15T16:58:46;22.90;99.70
44271;DHT22;29963;44.594;11.368;2022-10-15T17:01:16;22.90;99.90
44271;DHT22;29963;44.594;11.368;2022-10-15T17:03:42;22.80;99.90
44271;DHT22;29963;44.594;11.368;2022-10-15T17:06:09;22.80;99.90
44271;DHT22;29963;44.594;11.368;2022-10-15T17:11:00;22.70;99.90
44271;DHT22;29963;44.594;11.368;2022-10-15T17:13:26;22.60;99.90
44271;DHT22;29963;44.594;11.368;2022-10-15T17:15:51;22.60;99.90
44271;DHT22;29963;44.594;11.368;2022-10-15T17:18:17;22.60;99.90
44271;DHT22;29963;44.594;11.368;2022-10-15T17:20:47;22.50;99.90
44271;DHT22;29963;44.594;11.368;2022-10-15T17:23:14;22.50;99.90
44271;DHT22;29963;44.594;11.368;2022-10-15T17:25:41;22.40;99.90
44271;DHT22;29963;44.594;11.368;2022-10-15T17:28:07;22.40;99.90
44271;DHT22;29963;44.594;11.368;2022-10-15T17:30:37;22.30;99.90
44271;DHT22;29963;44.594;11.368;2022-10-15T17:33:05;22.30;99.90
44271;DHT22;29963;44.594;11.368;2022-10-15T17:35:35;22.20;99.90